Latest Weather Observations for Mount Baw Baw

IDV60801

Issued at 5:22 am EST Monday 6 April 2020 (issued every 10 minutes, with the page automatically refreshed every 10 minutes)

About weather observations | Map of weather stations | Latest weather observations for VIC | Other Formats
Station Details ID: 085291 Name: MOUNT BAW BAW Lat: -37.84 Lon: 146.27 Height: 1561.0 m
Data from the previous 72 hours. | See also: Recent months at Mount Baw Baw
Date/Time
EST
Temp
°C
App
Temp
°C
Dew
Point
°C
Rel
Hum
%
Delta-T
°C
Wind Press
QNH
hPa
Press
MSL
hPa
Rain since
9am
mm
Dir  Spd
km/h
Gust
km/h
Spd
kts
Gust
kts
06/05:00am 1.0 -4.6 1.0 100 0.0 SW 20 32 - 17 - - -
06/04:30am 1.2 -5.2 1.2 100 0.0 SW 24 35 - 19 - - -
06/04:00am 0.9 -5.5 0.9 100 0.0 WSW 24 37 - 20 - - -
06/03:30am 0.9 -5.5 0.9 100 0.0 WSW 24 39 - 21 - - -
06/03:00am 1.0 -4.6 1.0 100 0.0 WSW 20 33 - 18 - - -
06/02:30am 1.1 -4.9 1.1 100 0.0 WSW 22 35 - 19 - - -
06/02:00am 1.2 -5.2 1.2 100 0.0 WSW 24 39 - 21 - - -
06/01:30am 1.9 -4.7 1.9 100 0.0 WSW 26 39 - 21 - - -
06/01:00am 1.9 -4.7 1.9 100 0.0 WSW 26 39 - 21 - - -
06/12:41am 1.8 -5.2 1.8 100 0.0 WSW 28 46 - 25 - - -
06/12:30am 2.0 -4.6 2.0 100 0.0 WSW 26 39 - 21 - - -
06/12:00am 2.0 -4.2 2.0 100 0.0 WSW 24 39 - 21 - - -
 
Date/Time
EST
Temp
°C
App
Temp
°C
Dew
Point
°C
Rel
Hum
%
Delta-T
°C
Wind Press
QNH
hPa
Press
MSL
hPa
Rain since
9am
mm
Dir  Spd
km/h
Gust
km/h
Spd
kts
Gust
kts
05/11:30pm 2.3 - 2.3 100 0.0 - - - - - - - -
05/11:00pm 2.3 -4.6 2.3 100 0.0 WSW 28 43 - 23 - - -
05/10:30pm 2.4 -4.1 2.4 100 0.0 WSW 26 39 - 21 - - -
05/09:34pm 2.5 -4.4 2.5 100 0.0 WSW 28 57 - 31 - - -
05/09:30pm 2.5 -4.0 2.5 100 0.0 WSW 26 44 - 24 - - -
05/09:00pm 3.5 -2.1 3.5 100 0.0 WSW 22 37 - 20 - - -
05/08:30pm 4.0 -2.3 4.0 100 0.0 WSW 26 41 - 22 - - -
05/08:00pm 3.9 -2.4 3.9 100 0.0 WSW 26 50 - 27 - - -
05/07:30pm 4.0 -3.4 4.0 100 0.0 WSW 32 54 - 29 - - -
05/07:05pm 4.4 -1.8 4.4 100 0.0 WSW 26 46 - 25 - - -
05/07:00pm 4.5 -2.0 4.5 100 0.0 WSW 28 44 - 24 - - -
05/06:30pm 4.7 -1.8 4.7 100 0.0 WSW 28 50 - 27 - - -
05/06:00pm 4.6 -1.9 4.6 100 0.0 WSW 28 56 - 30 - - -
05/05:30pm 4.8 0.0 4.8 100 0.0 WSW 19 35 - 19 - - -
05/05:00pm 4.9 0.0 4.9 100 0.0 WSW 20 37 - 20 - - -
05/04:30pm 4.9 -0.8 4.9 100 0.0 WSW 24 41 - 22 - - 8.2
05/04:00pm 5.0 -0.7 5.0 100 0.0 WSW 24 39 - 21 - - 6.2
05/03:30pm 4.8 -1.7 4.8 100 0.0 W 28 52 - 28 - - 5.0
05/03:00pm 4.6 -1.9 4.6 100 0.0 W 28 57 - 31 - - 4.6
05/02:32pm 4.5 -2.0 4.5 100 0.0 W 28 54 - 29 - - 4.6
05/02:30pm 4.4 -1.8 4.4 100 0.0 W 26 54 - 29 - - 4.6
05/02:13pm 4.2 -2.4 4.2 100 0.0 WNW 28 57 - 31 - - 4.4
05/02:00pm 4.0 -1.9 4.0 100 0.0 WNW 24 52 - 28 - - 4.4
05/01:30pm 3.8 -2.1 3.8 100 0.0 WNW 24 44 - 24 - - 4.2
05/01:01pm 3.5 -3.2 3.5 100 0.0 WNW 28 54 - 29 - - 3.8
05/01:00pm 3.6 -2.7 3.6 100 0.0 WNW 26 48 - 26 - - 3.8
05/12:30pm 3.1 -3.7 3.1 100 0.0 WNW 28 52 - 28 - - 3.8
05/12:09pm 2.9 -3.9 2.9 100 0.0 WNW 28 50 - 27 - - 3.8
05/12:00pm 2.7 -3.8 2.7 100 0.0 W 26 59 - 32 - - 3.8
05/11:31am 2.5 -4.0 2.5 100 0.0 WNW 26 57 - 31 - - 3.4
05/11:30am 2.5 -4.0 2.5 100 0.0 WNW 26 57 - 31 - - 3.4
05/11:19am 2.3 -4.6 2.3 100 0.0 WNW 28 54 - 29 - - 3.4
05/11:00am 1.9 -4.3 1.9 100 0.0 WNW 24 57 - 31 - - 3.0
05/10:30am 1.9 -5.1 1.9 100 0.0 WNW 28 56 - 30 - - 2.6
05/10:00am 1.2 -5.9 1.2 100 0.0 WNW 28 59 - 32 - - 1.8
05/09:57am 1.2 -5.9 1.2 100 0.0 WNW 28 59 - 32 - - 1.8
05/09:30am 0.5 -6.3 0.5 100 0.0 NW 26 48 - 26 - - 0.8
05/09:00am 0.0 -6.5 0.0 100 0.0 NW 24 43 - 23 - - -
05/08:30am 0.0 -5.8 0.0 100 0.0 NW 20 41 - 22 - - -
05/08:00am -0.1 -6.3 -0.1 100 0.0 NW 22 43 - 23 - - -
05/07:30am -0.1 -5.9 -0.1 100 0.0 NW 20 43 - 23 - - -
05/07:00am -0.6 -6.3 -0.6 100 0.0 NW 19 39 - 21 - - -
05/06:30am -1.0 -6.7 -1.0 100 0.0 NNW 19 30 - 16 - - -
05/06:00am -1.3 -6.3 -1.3 100 0.0 N 15 28 - 15 - - -
05/05:30am -1.5 -6.9 -1.5 100 0.0 NNW 17 28 - 15 - - -
05/05:00am -1.6 -7.0 -1.6 100 0.0 NNW 17 32 - 17 - - -
05/04:30am -1.7 -6.8 -1.7 100 0.0 NNW 15 33 - 18 - - -
05/04:00am -2.0 -7.1 -2.0 100 0.0 NW 15 35 - 19 - - -
05/03:30am -2.1 -8.0 -2.1 100 0.0 NW 19 39 - 21 - - -
05/03:00am -2.0 -7.5 -2.0 100 0.0 WNW 17 26 - 14 - - -
05/03:30am -2.0 -7.5 -2.0 100 0.0 NW 17 33 - 18 - - -
05/03:00am -2.0 -7.5 -2.0 100 0.0 WNW 17 28 - 15 - - -
05/02:30am -2.0 -7.9 -2.0 100 0.0 WNW 19 30 - 16 - - -
05/02:00am -1.9 -7.8 -1.9 100 0.0 WNW 19 35 - 19 - - -
05/01:30am -2.1 -8.0 -2.1 100 0.0 W 19 35 - 19 - - -
05/01:00am -2.1 -8.0 -2.1 100 0.0 W 19 30 - 16 - - -
05/12:30am -2.0 -8.1 -2.0 100 0.0 W 20 33 - 18 - - -
05/12:00am -2.0 -7.9 -2.0 100 0.0 W 19 30 - 16 - - -
 
Date/Time
EST
Temp
°C
App
Temp
°C
Dew
Point
°C
Rel
Hum
%
Delta-T
°C
Wind Press
QNH
hPa
Press
MSL
hPa
Rain since
9am
mm
Dir  Spd
km/h
Gust
km/h
Spd
kts
Gust
kts
04/11:30pm -2.0 -8.1 -2.0 100 0.0 W 20 33 - 18 - - -
04/11:00pm -2.0 -8.4 -2.0 100 0.0 W 22 44 - 24 - - -
04/10:30pm -2.2 -8.3 -2.2 100 0.0 W 20 35 - 19 - - -
04/10:00pm -2.1 -8.2 -2.1 100 0.0 W 20 41 - 22 - - -
04/09:30pm -2.0 -8.8 -2.0 100 0.0 W 24 39 - 21 - - -
04/09:00pm -1.9 -8.7 -1.9 100 0.0 WSW 24 43 - 23 - - 8.0
04/08:35pm -1.8 -9.4 -1.8 100 0.0 WSW 28 54 - 29 - - -
04/08:30pm -1.7 -9.2 -1.7 100 0.0 WSW 28 44 - 24 - - -
04/08:00pm -1.8 -9.0 -1.8 100 0.0 WSW 26 43 - 23 - - -
04/07:30pm -1.7 -9.2 -1.7 100 0.0 W 28 46 - 25 - - -
04/07:12pm -1.4 -9.3 -1.4 100 0.0 WSW 30 46 - 25 - - -
04/07:00pm -1.5 -8.6 -1.5 100 0.0 W 26 44 - 24 - - -
04/06:39pm -1.1 -8.6 -1.1 100 0.0 WSW 28 50 - 27 - - -
04/06:30pm -0.5 -7.1 -0.5 100 0.0 WSW 24 44 - 24 - - -
04/06:11pm -0.5 -7.9 -0.5 100 0.0 W 28 46 - 25 - - -
04/06:00pm -0.5 -7.9 -0.5 100 0.0 W 28 48 - 26 - - -
04/05:30pm -0.5 -7.1 -0.5 100 0.0 WSW 24 37 - 20 - - -
04/05:00pm -0.5 -6.4 -0.5 100 0.0 WSW 20 37 - 20 - - -
04/04:30pm -0.1 -6.3 -0.1 100 0.0 WSW 22 35 - 19 - - -
04/04:20pm -0.1 -7.4 -0.1 100 0.0 WSW 28 56 - 30 - - -
04/04:00pm 0.6 -5.9 0.6 100 0.0 WSW 24 48 - 26 - - -
04/03:53pm 0.4 -6.8 0.4 100 0.0 WSW 28 48 - 26 - - -
04/03:30pm 0.3 -6.6 0.3 100 0.0 W 26 44 - 24 - - -
04/03:00pm 0.0 -7.7 0.0 100 0.0 WSW 30 57 - 31 - - -
04/02:59pm 0.0 -7.3 0.0 100 0.0 WSW 28 57 - 31 - - -
04/02:30pm 1.6 -5.1 1.6 100 0.0 WSW 26 43 - 23 - - -
04/02:00pm 1.6 -4.7 1.6 100 0.0 WSW 24 41 - 22 - - -
04/01:30pm 1.1 -6.4 1.1 100 0.0 WSW 30 52 - 28 - - -
04/01:27pm 1.0 -6.2 1.0 100 0.0 WSW 28 52 - 28 - - -
04/01:00pm 2.5 -3.3 2.5 100 0.0 WSW 22 50 - 27 - - -
04/12:31pm 2.2 -4.8 2.2 100 0.0 WSW 28 52 - 28 - - -
04/12:30pm 2.3 -4.3 2.3 100 0.0 WSW 26 52 - 28 - - -
04/12:00pm 2.2 -4.8 2.2 100 0.0 WSW 28 52 - 28 - - -
04/11:48am 2.7 -4.2 2.7 100 0.0 WSW 28 57 - 31 - - -
04/11:30am 3.1 -2.9 3.1 100 0.0 WSW 24 37 - 20 - - -
04/11:00am 3.1 -2.6 3.1 100 0.0 WSW 22 37 - 20 - - -
04/10:30am 3.2 -2.8 3.2 100 0.0 WSW 24 39 - 21 - - -
04/10:00am 3.2 -2.8 3.2 100 0.0 WSW 24 43 - 23 - - -
04/09:30am 3.4 -3.0 3.4 100 0.0 WSW 26 41 - 22 - - -
04/09:00am 3.6 -2.0 3.6 100 0.0 WSW 22 35 - 19 - - 21.0
04/08:30am 3.5 -2.5 3.5 100 0.0 WSW 24 44 - 24 - - -
04/08:00am 3.6 -2.0 3.6 100 0.0 WSW 22 39 - 21 - - 20.8
04/07:30am 3.4 -1.6 3.4 100 0.0 WSW 19 30 - 16 - - 20.8
04/07:00am 3.5 -2.1 3.5 100 0.0 WSW 22 32 - 17 - - 20.8
04/06:30am 3.8 -1.4 3.8 100 0.0 WSW 20 35 - 19 - - 20.8
04/06:00am 4.1 -0.8 4.1 100 0.0 WSW 19 28 - 15 - - 19.2
04/05:30am 3.7 -0.5 3.7 100 0.0 W 15 28 - 15 - - 17.6
04/05:00am 3.7 -0.9 3.7 100 0.0 WSW 17 28 - 15 - - 16.2
04/04:30am 3.8 -2.1 3.8 100 0.0 WSW 24 43 - 23 - - 13.4
04/04:10am 5.1 -1.3 5.1 100 0.0 SW 28 50 - 27 - - 10.6
04/04:00am 5.8 1.0 5.8 100 0.0 SW 20 35 - 19 - - 8.6
04/03:30am 5.9 1.7 5.9 100 0.0 SW 17 32 - 17 - - 1.8
04/03:00am 6.7 3.8 6.7 100 0.0 SW 11 15 - 8 - - 0.0
04/02:30am 7.0 3.8 7.0 100 0.0 N 13 30 - 16 - - 0.0
04/02:00am 7.1 3.9 7.0 99 0.1 NNE 13 28 - 15 - - 0.0
04/01:30am 7.3 3.0 7.2 99 0.1 NE 19 39 - 21 - - 0.0
04/01:00am 7.2 2.9 6.9 98 0.2 NE 19 39 - 21 - - 0.0
04/12:30am 7.4 3.0 6.7 95 0.4 NNE 19 30 - 16 - - 0.0
04/12:00am 7.4 3.2 7.3 99 0.1 NNE 19 30 - 16 - - 0.0
 
Date/Time
EST
Temp
°C
App
Temp
°C
Dew
Point
°C
Rel
Hum
%
Delta-T
°C
Wind Press
QNH
hPa
Press
MSL
hPa
Rain since
9am
mm
Dir  Spd
km/h
Gust
km/h
Spd
kts
Gust
kts
03/11:30pm 7.4 3.2 7.3 99 0.1 NNE 19 37 - 20 - - 0.0
03/11:00pm 7.3 3.4 7.3 100 0.0 NE 17 28 - 15 - - 0.0
03/10:30pm 7.7 3.9 7.6 99 0.1 NE 17 26 - 14 - - 0.0
03/10:00pm 7.7 3.9 7.6 99 0.1 NNE 17 33 - 18 - - 0.0
03/09:30pm 7.7 3.9 7.6 99 0.1 NNE 17 37 - 20 - - 0.0
03/09:00pm 7.7 3.9 7.6 99 0.1 NNE 17 30 - 16 - - 0.0
03/08:30pm 7.5 4.0 7.4 99 0.1 NE 15 28 - 15 - - 0.0
03/08:00pm 7.6 4.6 7.5 99 0.1 NE 13 26 - 14 - - 0.0
03/07:30pm 7.9 5.3 7.6 98 0.2 NE 11 17 - 9 - - 0.0
03/07:00pm 7.9 5.3 7.8 99 0.1 NE 11 20 - 11 - - 0.0
03/06:30pm 8.2 6.1 8.1 99 0.1 NE 9 17 - 9 - - 0.0
03/06:00pm 9.2 7.1 8.3 94 0.5 NNE 9 15 - 8 - - 0.0
03/05:30pm 9.0 7.0 8.6 97 0.2 NNE 9 20 - 11 - - 0.0
03/05:00pm 9.5 7.9 8.9 96 0.3 NNE 7 13 - 7 - - 0.0
03/04:30pm 10.3 8.2 8.1 86 1.2 NE 9 20 - 11 - - 0.0
03/04:00pm 10.4 8.4 7.1 80 1.7 NE 7 11 - 6 - - 0.0
03/03:30pm 11.2 9.3 7.5 78 1.9 NE 7 11 - 6 - - 0.0
03/03:00pm 12.1 10.1 7.2 72 2.6 NNE 7 15 - 8 - - 0.0
03/02:30pm 11.6 8.5 5.5 66 3.1 WNW 11 19 - 10 - - 0.0
03/02:00pm 12.0 9.9 6.5 69 2.9 WSW 7 15 - 8 - - 0.0
03/01:30pm 10.9 8.2 7.2 78 1.9 N 11 24 - 13 - - 0.0
03/01:00pm 11.6 9.1 6.7 72 2.5 N 9 17 - 9 - - 0.0
03/12:30pm 10.7 8.1 7.8 82 1.5 NW 11 24 - 13 - - 0.0
03/12:00pm 9.1 6.7 7.1 87 1.0 NNW 9 19 - 10 - - 0.0
03/11:30am 9.1 6.5 6.2 82 1.5 N 9 17 - 9 - - 0.0
03/11:00am 9.1 6.7 7.2 88 1.0 NNW 9 17 - 9 - - 0.0
03/10:30am 8.2 5.6 7.8 97 0.2 NNW 11 17 - 9 - - 0.0
03/10:00am 7.6 5.3 7.5 99 0.1 WNW 9 20 - 11 - - 0.0
03/09:30am 7.2 4.4 7.1 99 0.1 NNW 11 24 - 13 - - 0.0
03/09:00am 6.6 3.3 6.5 99 0.0 NNW 13 20 - 11 - - -
03/08:30am 5.4 2.3 5.4 100 0.0 NNW 11 17 - 9 - - -
03/08:00am 6.0 3.0 6.0 100 0.0 NW 11 20 - 11 - - -
03/07:30am 6.0 3.0 6.0 100 0.0 NW 11 20 - 11 - - -
03/07:00am 5.9 3.3 5.9 100 0.0 NW 9 15 - 8 - - -
03/06:30am 6.0 3.0 6.0 100 0.0 NW 11 19 - 10 - - -

Other formats

Comma delimited format used in spreadsheet applications
http://www.bom.gov.au/fwo/IDV60801/IDV60801.95901.axf

JavaScript Object Notation format (JSON) in row-major order
http://www.bom.gov.au/fwo/IDV60801/IDV60801.95901.json

Data quality

Most of these data are generated automatically and are frequently updated. Quality checks on data are not normally performed. It is possible for incorrect values to appear. Refer to information at About Latest Weather Observations and please check the disclaimer before using these data.